adressa.no alexa rank chart, adressa.no alexa rank daily changes

adressa.no alexa rank chart, adressa.no alexa rank daily changes

adressa.no
Actual rank:
21 438

RANK HISTORY

Date Rank Diff
2019/01/19 21 438 +1 377
2019/01/18 20 061 -3 604
2019/01/17 23 665 +5 067
2019/01/16 18 598 +4 896
2019/01/15 13 702 -2 934
2019/01/14 16 636 +4 494
2019/01/13 12 142 -580
2019/01/12 12 722 +863
2019/01/11 11 859 -1 025
2019/01/10 12 884 +636
2019/01/09 12 248 -2 035
2019/01/08 14 283 -145
2019/01/07 14 428 +2 750
2019/01/06 11 678 +275
2019/01/05 11 403 -1 104
2019/01/04 12 507 -2 590
2019/01/03 15 097 +4 003
2019/01/02 11 094 -1 449
2019/01/01 12 543 -2 122
2018/12/31 14 665 +536
2018/12/30 14 129 +841
2018/12/29 13 288 -5 760
2018/12/28 19 048 +4 107
2018/12/27 14 941 +595
2018/12/26 14 346 +1 042
2018/12/25 13 304 -320
2018/12/24 13 624 +2 645
2018/12/23 10 979 -8 996
2018/12/22 19 975 +2 850
2018/12/21 17 125 -2 540
2018/12/20 19 665 +1 254
2018/12/19 18 411 +2 614
2018/12/18 15 797 +1 713
2018/12/17 14 084 -6 087
2018/12/16 20 171 +810
2018/12/15 19 361 +6 663
2018/12/14 12 698 +586
2018/12/13 12 112 -277
2018/12/12 12 389 -9 972
2018/12/11 22 361 +9 257
2018/12/10 13 104 +186
2018/12/09 12 918 -354
2018/12/08 13 272 +451
2018/12/07 12 821 +114
2018/12/06 12 707 -8 367
2018/12/05 21 074 +6 682
2018/12/04 14 392 -11 909
2018/12/03 26 301 +13 764
2018/12/02 12 537 -10 440
2018/12/01 22 977 +10 852
2018/11/30 12 125 -11 336
2018/11/29 23 461 +10 621
2018/11/28 12 840 -33 063
2018/11/27 45 903 +35 534
2018/11/26 10 369 -945
2018/11/25 11 314 -6 608
2018/11/24 17 922 +19
2018/11/23 17 903 +5 583
2018/11/22 12 320 -13 221
2018/11/21 25 541 +11 532
2018/11/20 14 009

WIDGET FOR YOUR SITE

DOMAINS WITH THE NEAREST RANK

Domain Rank
festicket.com 21 433
dblp.org 21 434
5nani.com 21 435
mohawkcollege.ca 21 436
mojtv.hr 21 437
adressa.no 21 438
kissvk.com 21 439
sendowl.com 21 440
eurobet.it 21 441
itu.int 21 442
eetop.cn 21 443

DOMAINS WITH THE NEAREST RANK BY TLD .no

Domain Rank
bt.no 17 001
gulesider.no 17 035
fsweb.no 18 548
3dsecure.no 19 742
hegnar.no 20 957
adressa.no 21 438
power.no 21 534
at.no 23 543
startsiden.no 23 633
lanekassen.no 24 123
snl.no 24 187